Time;durP1;ratioP1;P1;durP2;ratioP2;P2;SDS_P1;SDS_P2;PMS_P1;PMS_P2;Temp;Humidity;BMP_temperature;BMP_pressure;BME280_temperature;BME280_humidity;BME280_pressure;Samples;Min_cycle;Max_cycle;Signal;HPM_P1;HPM_P2
2022/11/28 00:01:15;;;;;;;;;;;;;;;;;;5067487;28;20339;-62
2022/11/28 00:03:40;;;;;;;;;;;;;;;;;;5070015;28;19962;-62
2022/11/28 00:06:06;;;;;;;;;;;;;;;;;;5067535;28;20290;-61
2022/11/28 00:08:32;;;;;;;;;;;;;;;;;;5068600;28;19916;-60
2022/11/28 00:10:58;;;;;;;;;;;;;;;;;;5070769;28;20003;-61
2022/11/28 00:13:24;;;;;;;;;;;;;;;;;;5070249;28;19985;-62
2022/11/28 00:15:50;;;;;;;;;;;;;;;;;;5065444;28;19999;-62
2022/11/28 00:18:15;;;;;;;;;;;;;;;;;;5068823;28;19919;-61
2022/11/28 00:20:41;;;;;;;;;;;;;;;;;;5067192;28;19916;-63
2022/11/28 00:23:07;;;;;;;;;;;;;;;;;;5060363;28;19951;-62
2022/11/28 00:25:33;;;;;;;;;;;;;;;;;;5070321;28;19919;-62
2022/11/28 00:27:59;;;;;;;;;;;;;;;;;;5072121;28;19913;-62
2022/11/28 00:30:25;;;;;;;;;;;;;;;;;;5067552;28;19936;-63
2022/11/28 00:32:51;;;;;;;;;;;;;;;;;;5067173;28;19916;-61
2022/11/28 00:35:16;;;;;;;;;;;;;;;;;;5067363;28;19996;-61
2022/11/28 00:37:42;;;;;;;;;;;;;;;;;;5067617;28;19920;-62
2022/11/28 00:40:08;;;;;;;;;;;;;;;;;;5065125;28;19951;-62
2022/11/28 00:42:34;;;;;;;;;;;;;;;;;;5069776;28;20450;-61
2022/11/28 00:45:00;;;;;;;;;;;;;;;;;;5069081;28;19924;-61
2022/11/28 00:47:26;;;;;;;;;;;;;;;;;;5068342;28;19912;-62
2022/11/28 00:49:52;;;;;;;;;;;;;;;;;;5064327;28;19917;-61
2022/11/28 00:52:18;;;;;;;;;;;;;;;;;;5060833;28;19916;-62
2022/11/28 00:54:44;;;;;;;;;;;;;;;;;;5065461;28;19923;-58
2022/11/28 00:57:09;;;;;;;;;;;;;;;;;;5065915;28;19924;-63
2022/11/28 00:59:35;;;;;;;;;;;;;;;;;;5067303;28;20773;-60
2022/11/28 01:02:01;;;;;;;;;;;;;;;;;;5062716;28;19917;-60
2022/11/28 01:04:27;;;;;;;;;;;;;;;;;;5067440;28;20451;-60
2022/11/28 01:06:53;;;;;;;;;;;;;;;;;;5064653;28;20009;-60
2022/11/28 01:09:19;;;;;;;;;;;;;;;;;;5069551;28;20409;-61
2022/11/28 01:11:45;;;;;;;;;;;;;;;;;;5074029;28;19912;-61
2022/11/28 01:14:10;;;;;;;;;;;;;;;;;;5072958;28;19917;-61
2022/11/28 01:16:36;;;;;;;;;;;;;;;;;;5072340;28;19912;-61
2022/11/28 01:19:02;;;;;;;;;;;;;;;;;;5076462;28;19920;-60
2022/11/28 01:21:28;;;;;;;;;;;;;;;;;;5063585;28;19917;-59
2022/11/28 01:23:54;;;;;;;;;;;;;;;;;;5077442;28;19939;-62
2022/11/28 01:26:20;;;;;;;;;;;;;;;;;;5071450;28;19912;-61
2022/11/28 01:28:46;;;;;;;;;;;;;;;;;;5068484;28;20332;-61
2022/11/28 01:31:12;;;;;;;;;;;;;;;;;;5063310;28;19970;-61
2022/11/28 01:33:37;;;;;;;;;;;;;;;;;;5076696;28;19924;-63
2022/11/28 01:36:03;;;;;;;;;;;;;;;;;;5067772;28;20638;-59
2022/11/28 01:38:29;;;;;;;;;;;;;;;;;;5069582;28;19982;-61
2022/11/28 01:40:55;;;;;;;;;;;;;;;;;;5067786;28;19917;-62
2022/11/28 01:43:21;;;;;;;;;;;;;;;;;;5070440;28;19920;-62
2022/11/28 01:45:47;;;;;;;;;;;;;;;;;;5067607;28;19912;-61
2022/11/28 01:48:13;;;;;;;;;;;;;;;;;;5066043;28;19976;-63
2022/11/28 01:50:38;;;;;;;;;;;;;;;;;;5076894;28;20409;-61
2022/11/28 01:53:04;;;;;;;;;;;;;;;;;;5070759;28;19924;-61
2022/11/28 01:55:30;;;;;;;;;;;;;;;;;;5074388;28;19916;-61
2022/11/28 01:57:56;;;;;;;;;;;;;;;;;;5071331;28;20398;-62
2022/11/28 02:00:22;;;;;;;;;;;;;;;;;;5068926;28;20065;-61
2022/11/28 02:02:48;;;;;;;;;;;;;;;;;;5071945;28;19927;-62
2022/11/28 02:05:14;;;;;;;;;;;;;;;;;;5067868;28;20007;-62
2022/11/28 02:07:39;;;;;;;;;;;;;;;;;;5069487;28;20004;-61
2022/11/28 02:10:05;;;;;;;;;;;;;;;;;;5068922;28;20385;-61
2022/11/28 02:12:31;;;;;;;;;;;;;;;;;;5070162;28;20046;-61
2022/11/28 02:14:57;;;;;;;;;;;;;;;;;;5071167;28;20352;-60
2022/11/28 02:17:23;;;;;;;;;;;;;;;;;;5068613;28;19916;-61
2022/11/28 02:19:49;;;;;;;;;;;;;;;;;;5073191;28;19934;-60
2022/11/28 02:22:15;;;;;;;;;;;;;;;;;;5071495;28;20298;-62
2022/11/28 02:24:41;;;;;;;;;;;;;;;;;;5073661;28;19958;-60
2022/11/28 02:27:06;;;;;;;;;;;;;;;;;;5069251;28;20240;-58
2022/11/28 02:29:32;;;;;;;;;;;;;;;;;;5067149;28;19946;-60
2022/11/28 02:31:58;;;;;;;;;;;;;;;;;;5068194;28;19963;-60
2022/11/28 02:34:24;;;;;;;;;;;;;;;;;;5073496;28;19921;-60
2022/11/28 02:36:50;;;;;;;;;;;;;;;;;;5070281;28;20801;-58
2022/11/28 02:39:16;;;;;;;;;;;;;;;;;;5070791;28;19915;-62
2022/11/28 02:41:41;;;;;;;;;;;;;;;;;;5072110;28;20368;-61
2022/11/28 02:44:07;;;;;;;;;;;;;;;;;;5070224;28;20011;-61
2022/11/28 02:46:33;;;;;;;;;;;;;;;;;;5067969;28;19912;-61
2022/11/28 02:48:59;;;;;;;;;;;;;;;;;;5071107;28;19912;-60
2022/11/28 02:51:25;;;;;;;;;;;;;;;;;;5070877;28;19927;-61
2022/11/28 02:53:51;;;;;;;;;;;;;;;;;;5068528;28;19912;-61
2022/11/28 02:56:17;;;;;;;;;;;;;;;;;;5069563;28;20431;-61
2022/11/28 02:58:42;;;;;;;;;;;;;;;;;;5078681;28;19920;-61
2022/11/28 03:01:11;;;;;;;;;;;;;;;;;;5067240;28;19917;-58
2022/11/28 03:03:37;;;;;;;;;;;;;;;;;;5078154;28;19916;-59
2022/11/28 03:06:02;;;;;;;;;;;;;;;;;;5069014;28;19958;-61
2022/11/28 03:08:28;;;;;;;;;;;;;;;;;;5074799;28;21603;-60
2022/11/28 03:10:54;;;;;;;;;;;;;;;;;;5069751;28;19959;-58
2022/11/28 03:13:20;;;;;;;;;;;;;;;;;;5067856;28;19920;-60
2022/11/28 03:15:46;;;;;;;;;;;;;;;;;;5068855;28;20062;-60
2022/11/28 03:18:12;;;;;;;;;;;;;;;;;;5073375;28;20333;-60
2022/11/28 03:20:38;;;;;;;;;;;;;;;;;;5069180;28;19916;-58
2022/11/28 03:23:04;;;;;;;;;;;;;;;;;;5081590;28;20007;-60
2022/11/28 03:25:29;;;;;;;;;;;;;;;;;;5064103;28;19913;-61
2022/11/28 03:27:55;;;;;;;;;;;;;;;;;;5069249;28;20393;-62
2022/11/28 03:30:21;;;;;;;;;;;;;;;;;;5064589;28;19912;-61
2022/11/28 03:32:47;;;;;;;;;;;;;;;;;;5067585;28;19967;-58
2022/11/28 03:35:13;;;;;;;;;;;;;;;;;;5075656;22;19924;-61
2022/11/28 03:37:39;;;;;;;;;;;;;;;;;;5048988;28;19986;-57
2022/11/28 03:40:06;;;;;;;;;;;;;;;;;;5050216;28;19975;-59
2022/11/28 03:42:31;;;;;;;;;;;;;;;;;;5050860;28;19994;-58
2022/11/28 03:44:57;;;;;;;;;;;;;;;;;;5052789;28;19959;-59
2022/11/28 03:47:23;;;;;;;;;;;;;;;;;;5047834;28;19913;-57
2022/11/28 03:49:49;;;;;;;;;;;;;;;;;;5048850;28;20378;-60
2022/11/28 03:52:15;;;;;;;;;;;;;;;;;;5049466;28;19934;-60
2022/11/28 03:54:41;;;;;;;;;;;;;;;;;;5049550;28;20383;-59
2022/11/28 03:57:07;;;;;;;;;;;;;;;;;;5046873;28;19916;-60
2022/11/28 03:59:33;;;;;;;;;;;;;;;;;;5052368;28;20374;-60
2022/11/28 04:01:58;;;;;;;;;;;;;;;;;;5047405;28;19924;-59
2022/11/28 04:04:24;;;;;;;;;;;;;;;;;;5047441;28;19974;-61
2022/11/28 04:06:50;;;;;;;;;;;;;;;;;;5047974;28;19917;-61
2022/11/28 04:09:16;;;;;;;;;;;;;;;;;;5050337;28;19962;-61
2022/11/28 04:11:42;;;;;;;;;;;;;;;;;;5042295;28;19916;-60
2022/11/28 04:14:08;;;;;;;;;;;;;;;;;;5046928;28;19913;-61
2022/11/28 04:16:34;;;;;;;;;;;;;;;;;;5054124;28;20388;-61
2022/11/28 04:19:00;;;;;;;;;;;;;;;;;;5052749;28;19919;-61
2022/11/28 04:21:25;;;;;;;;;;;;;;;;;;5046109;28;19986;-59
2022/11/28 04:23:51;;;;;;;;;;;;;;;;;;5051800;28;20015;-60
2022/11/28 04:26:17;;;;;;;;;;;;;;;;;;5049652;28;20375;-61
2022/11/28 04:28:43;;;;;;;;;;;;;;;;;;5048170;28;19939;-61
2022/11/28 04:31:09;;;;;;;;;;;;;;;;;;5046677;28;19920;-59
2022/11/28 04:33:35;;;;;;;;;;;;;;;;;;5047578;28;19985;-61
2022/11/28 04:36:01;;;;;;;;;;;;;;;;;;5049717;28;19927;-61
2022/11/28 04:38:27;;;;;;;;;;;;;;;;;;5045081;28;19913;-59
2022/11/28 04:40:52;;;;;;;;;;;;;;;;;;5052551;28;19916;-61
2022/11/28 04:43:18;;;;;;;;;;;;;;;;;;5048938;28;19916;-58
2022/11/28 04:45:44;;;;;;;;;;;;;;;;;;5048310;28;20385;-59
2022/11/28 04:48:10;;;;;;;;;;;;;;;;;;5050496;28;19921;-61
2022/11/28 04:50:36;;;;;;;;;;;;;;;;;;5054969;28;20002;-61
2022/11/28 04:53:02;;;;;;;;;;;;;;;;;;5053453;28;19939;-62
2022/11/28 04:55:28;;;;;;;;;;;;;;;;;;5052500;28;20004;-61
2022/11/28 04:57:53;;;;;;;;;;;;;;;;;;5054070;28;19913;-60
2022/11/28 05:00:19;;;;;;;;;;;;;;;;;;5053430;28;20505;-59
2022/11/28 05:02:45;;;;;;;;;;;;;;;;;;5057860;28;20022;-60
2022/11/28 05:05:11;;;;;;;;;;;;;;;;;;5054957;28;20293;-60
2022/11/28 05:07:37;;;;;;;;;;;;;;;;;;5055231;28;19913;-60
2022/11/28 05:10:03;;;;;;;;;;;;;;;;;;5048274;28;19923;-60
2022/11/28 05:12:29;;;;;;;;;;;;;;;;;;5048838;28;19919;-60
2022/11/28 05:14:54;;;;;;;;;;;;;;;;;;5050713;28;19912;-61
2022/11/28 05:17:20;;;;;;;;;;;;;;;;;;5053457;28;19913;-61
2022/11/28 05:19:46;;;;;;;;;;;;;;;;;;5052730;28;19948;-60
2022/11/28 05:22:12;;;;;;;;;;;;;;;;;;5050311;28;19929;-60
2022/11/28 05:24:38;;;;;;;;;;;;;;;;;;5053409;28;19955;-61
2022/11/28 05:27:04;;;;;;;;;;;;;;;;;;5054986;28;20316;-60
2022/11/28 05:29:30;;;;;;;;;;;;;;;;;;5046459;28;19999;-58
2022/11/28 05:31:55;;;;;;;;;;;;;;;;;;5049698;28;19966;-59
2022/11/28 05:34:21;;;;;;;;;;;;;;;;;;5050211;28;20413;-58
2022/11/28 05:36:47;;;;;;;;;;;;;;;;;;5047560;28;19913;-59
2022/11/28 05:39:13;;;;;;;;;;;;;;;;;;5053812;28;20460;-60
2022/11/28 05:41:39;;;;;;;;;;;;;;;;;;5054378;28;19917;-61
2022/11/28 05:44:05;;;;;;;;;;;;;;;;;;5053461;28;19912;-61
2022/11/28 05:46:31;;;;;;;;;;;;;;;;;;5051770;28;19915;-61
2022/11/28 05:48:56;;;;;;;;;;;;;;;;;;5053111;28;20302;-60
2022/11/28 05:51:22;;;;;;;;;;;;;;;;;;5056022;28;19908;-60
2022/11/28 05:53:48;;;;;;;;;;;;;;;;;;5050444;28;19921;-60
2022/11/28 05:56:14;;;;;;;;;;;;;;;;;;5051141;28;19912;-61
2022/11/28 05:58:40;;;;;;;;;;;;;;;;;;5049224;28;19921;-60
2022/11/28 06:01:06;;;;;;;;;;;;;;;;;;5045829;28;19924;-60
2022/11/28 06:03:32;;;;;;;;;;;;;;;;;;5056455;28;19917;-61
2022/11/28 06:05:58;;;;;;;;;;;;;;;;;;5050314;28;20400;-61
2022/11/28 06:08:23;;;;;;;;;;;;;;;;;;5048570;28;19912;-60
2022/11/28 06:10:49;;;;;;;;;;;;;;;;;;5048539;28;20000;-60
2022/11/28 06:13:15;;;;;;;;;;;;;;;;;;5052773;28;19920;-60
2022/11/28 06:15:41;;;;;;;;;;;;;;;;;;5051296;28;20003;-61
2022/11/28 06:18:07;;;;;;;;;;;;;;;;;;5055023;28;19913;-57
2022/11/28 06:20:33;;;;;;;;;;;;;;;;;;5046064;28;19913;-59
2022/11/28 06:22:59;;;;;;;;;;;;;;;;;;5045997;28;19917;-61
2022/11/28 06:25:24;;;;;;;;;;;;;;;;;;5048974;28;19909;-59
2022/11/28 06:27:50;;;;;;;;;;;;;;;;;;5054330;28;19934;-62
2022/11/28 06:30:16;;;;;;;;;;;;;;;;;;5047427;28;19909;-60
2022/11/28 06:32:42;;;;;;;;;;;;;;;;;;5052478;28;19921;-60
2022/11/28 06:35:08;;;;;;;;;;;;;;;;;;5050748;28;20011;-61
2022/11/28 06:37:34;;;;;;;;;;;;;;;;;;5048784;28;19917;-61
2022/11/28 06:40:00;;;;;;;;;;;;;;;;;;5051993;28;20406;-61
2022/11/28 06:42:25;;;;;;;;;;;;;;;;;;5051972;28;19909;-61
2022/11/28 06:44:51;;;;;;;;;;;;;;;;;;5050296;28;20003;-61
2022/11/28 06:47:17;;;;;;;;;;;;;;;;;;5050566;28;19913;-60
2022/11/28 06:49:43;;;;;;;;;;;;;;;;;;5044221;28;20625;-60
2022/11/28 06:52:09;;;;;;;;;;;;;;;;;;5040694;28;19925;-62
2022/11/28 06:54:35;;;;;;;;;;;;;;;;;;5041912;28;19928;-61
2022/11/28 06:57:01;;;;;;;;;;;;;;;;;;5042554;28;19920;-61
2022/11/28 06:59:26;;;;;;;;;;;;;;;;;;5054229;28;19991;-61
2022/11/28 07:01:54;;;;;;;;;;;;;;;;;;5045801;28;19931;-61
2022/11/28 07:04:20;;;;;;;;;;;;;;;;;;5046245;28;20007;-61
2022/11/28 07:06:46;;;;;;;;;;;;;;;;;;5045060;28;19978;-61
2022/11/28 07:09:12;;;;;;;;;;;;;;;;;;5049666;28;19924;-61
2022/11/28 07:11:38;;;;;;;;;;;;;;;;;;5045485;28;19913;-60
2022/11/28 07:14:04;;;;;;;;;;;;;;;;;;5046683;28;19960;-61
2022/11/28 07:16:30;;;;;;;;;;;;;;;;;;5048169;28;20284;-61
2022/11/28 07:18:56;;;;;;;;;;;;;;;;;;5049039;28;19996;-61
2022/11/28 07:21:22;;;;;;;;;;;;;;;;;;5047354;28;19924;-61
2022/11/28 07:23:48;;;;;;;;;;;;;;;;;;5052109;28;20210;-59
2022/11/28 07:26:14;;;;;;;;;;;;;;;;;;5047092;28;19983;-59
2022/11/28 07:28:40;;;;;;;;;;;;;;;;;;5047695;28;20820;-59
2022/11/28 07:31:06;;;;;;;;;;;;;;;;;;5044944;28;19961;-60
2022/11/28 07:33:32;;;;;;;;;;;;;;;;;;5045452;28;19952;-60
2022/11/28 07:35:58;;;;;;;;;;;;;;;;;;5049468;28;20279;-59
2022/11/28 07:38:24;;;;;;;;;;;;;;;;;;5051319;28;19913;-60
2022/11/28 07:40:49;;;;;;;;;;;;;;;;;;5050164;28;19924;-60
2022/11/28 07:43:16;;;;;;;;;;;;;;;;;;5043061;28;19912;-60
2022/11/28 07:45:42;;;;;;;;;;;;;;;;;;5050118;28;19919;-59
2022/11/28 07:48:09;;;;;;;;;;;;;;;;;;5037890;28;19919;-60
2022/11/28 07:50:34;;;;;;;;;;;;;;;;;;5046426;28;20496;-61
2022/11/28 07:53:00;;;;;;;;;;;;;;;;;;5041095;28;19927;-60
2022/11/28 07:55:26;;;;;;;;;;;;;;;;;;5044025;28;20317;-59
2022/11/28 07:57:52;;;;;;;;;;;;;;;;;;5051824;28;19920;-60
2022/11/28 08:00:18;;;;;;;;;;;;;;;;;;5043585;28;19920;-60
2022/11/28 08:02:44;;;;;;;;;;;;;;;;;;5042307;28;19913;-61
2022/11/28 08:05:10;;;;;;;;;;;;;;;;;;5047190;28;19916;-61
2022/11/28 08:07:36;;;;;;;;;;;;;;;;;;5045221;28;20313;-61
2022/11/28 08:10:02;;;;;;;;;;;;;;;;;;5046448;28;20767;-60
2022/11/28 08:12:28;;;;;;;;;;;;;;;;;;5050013;28;19913;-61
2022/11/28 08:14:53;;;;;;;;;;;;;;;;;;5044146;28;19985;-60
2022/11/28 08:17:19;;;;;;;;;;;;;;;;;;5046325;28;19913;-61
2022/11/28 08:19:45;;;;;;;;;;;;;;;;;;5041753;28;19925;-60
2022/11/28 08:22:11;;;;;;;;;;;;;;;;;;5041211;28;19963;-60
2022/11/28 08:24:37;;;;;;;;;;;;;;;;;;5047484;28;20470;-60
2022/11/28 08:27:03;;;;;;;;;;;;;;;;;;5044374;28;20011;-60
2022/11/28 08:29:29;;;;;;;;;;;;;;;;;;5045464;28;20009;-60
2022/11/28 08:31:55;;;;;;;;;;;;;;;;;;5043974;28;19920;-60
2022/11/28 08:34:20;;;;;;;;;;;;;;;;;;5047022;28;19916;-59
2022/11/28 08:36:47;;;;;;;;;;;;;;;;;;5044671;28;19939;-60
2022/11/28 08:39:13;;;;;;;;;;;;;;;;;;5044655;28;19909;-60
2022/11/28 08:41:39;;;;;;;;;;;;;;;;;;5043777;28;20058;-60
2022/11/28 08:44:05;;;;;;;;;;;;;;;;;;5044544;28;19917;-60
2022/11/28 08:46:31;;;;;;;;;;;;;;;;;;5047595;28;19916;-60
2022/11/28 08:48:57;;;;;;;;;;;;;;;;;;5045589;28;20395;-60
2022/11/28 08:51:23;;;;;;;;;;;;;;;;;;5042577;28;20015;-60
2022/11/28 08:53:49;;;;;;;;;;;;;;;;;;5041240;28;19920;-60
2022/11/28 08:56:14;;;;;;;;;;;;;;;;;;5049541;28;19998;-60
2022/11/28 08:58:41;;;;;;;;;;;;;;;;;;5049791;28;19909;-60
2022/11/28 09:01:06;;;;;;;;;;;;;;;;;;5047521;28;19927;-60
2022/11/28 09:03:32;;;;;;;;;;;;;;;;;;5048110;28;19917;-60
2022/11/28 09:05:58;;;;;;;;;;;;;;;;;;5046404;28;19912;-60
2022/11/28 09:08:24;;;;;;;;;;;;;;;;;;5046062;28;20271;-60
2022/11/28 09:10:50;;;;;;;;;;;;;;;;;;5034950;28;19942;-59
2022/11/28 09:13:16;;;;;;;;;;;;;;;;;;5050373;28;19913;-59
2022/11/28 09:15:42;;;;;;;;;;;;;;;;;;5044521;28;19931;-59
2022/11/28 09:18:07;;;;;;;;;;;;;;;;;;5047126;28;19913;-59
2022/11/28 09:20:33;;;;;;;;;;;;;;;;;;5045167;28;19925;-60
2022/11/28 09:23:00;;;;;;;;;;;;;;;;;;5048604;28;20298;-59
2022/11/28 09:25:25;;;;;;;;;;;;;;;;;;5045899;28;19909;-60
2022/11/28 09:27:51;;;;;;;;;;;;;;;;;;5045992;28;19913;-60
2022/11/28 09:30:21;;;;;;;;;;;;;;;;;;5043901;28;19916;-60
2022/11/28 09:32:47;;;;;;;;;;;;;;;;;;5049801;28;19966;-59
2022/11/28 09:35:12;;;;;;;;;;;;;;;;;;5046448;28;19928;-59
2022/11/28 09:37:38;;;;;;;;;;;;;;;;;;5049480;28;19936;-59
2022/11/28 09:40:04;;;;;;;;;;;;;;;;;;5049522;28;20405;-60
2022/11/28 09:42:30;;;;;;;;;;;;;;;;;;5051932;28;19940;-60
2022/11/28 09:44:56;;;;;;;;;;;;;;;;;;5051498;28;19913;-60
2022/11/28 09:47:22;;;;;;;;;;;;;;;;;;5051730;28;19912;-60
2022/11/28 09:49:47;;;;;;;;;;;;;;;;;;5051773;28;20004;-60
2022/11/28 09:52:13;;;;;;;;;;;;;;;;;;5052613;28;19913;-60
2022/11/28 09:54:39;;;;;;;;;;;;;;;;;;5051048;28;20451;-59
2022/11/28 09:57:05;;;;;;;;;;;;;;;;;;5047994;28;20303;-60
2022/11/28 09:59:32;;;;;;;;;;;;;;;;;;5043684;28;19934;-60
2022/11/28 10:01:57;;;;;;;;;;;;;;;;;;5053855;28;19917;-60
2022/11/28 10:04:23;;;;;;;;;;;;;;;;;;5046014;28;19947;-61
2022/11/28 10:06:49;;;;;;;;;;;;;;;;;;5051388;28;20418;-60
2022/11/28 10:09:15;;;;;;;;;;;;;;;;;;5047922;28;20059;-60
2022/11/28 10:11:41;;;;;;;;;;;;;;;;;;5046372;28;20390;-59
2022/11/28 10:14:07;;;;;;;;;;;;;;;;;;5049069;28;19928;-60
2022/11/28 10:16:33;;;;;;;;;;;;;;;;;;5049941;28;19925;-60
2022/11/28 10:18:59;;;;;;;;;;;;;;;;;;5040390;28;19952;-60
2022/11/28 10:21:25;;;;;;;;;;;;;;;;;;5048973;28;19965;-59
2022/11/28 10:23:51;;;;;;;;;;;;;;;;;;5047118;28;19913;-60
2022/11/28 10:26:16;;;;;;;;;;;;;;;;;;5049064;28;19913;-57
2022/11/28 10:28:42;;;;;;;;;;;;;;;;;;5048378;28;19935;-59
2022/11/28 10:31:09;;;;;;;;;;;;;;;;;;5048857;28;20313;-60
2022/11/28 10:33:35;;;;;;;;;;;;;;;;;;5045073;28;19917;-59
2022/11/28 10:36:01;;;;;;;;;;;;;;;;;;5045248;28;19999;-59
2022/11/28 10:38:27;;;;;;;;;;;;;;;;;;5043097;28;20880;-59
2022/11/28 10:40:52;;;;;;;;;;;;;;;;;;5045886;28;19917;-60
2022/11/28 10:43:18;;;;;;;;;;;;;;;;;;5045536;28;19913;-59
2022/11/28 10:45:44;;;;;;;;;;;;;;;;;;5043642;28;19955;-61
2022/11/28 10:48:10;;;;;;;;;;;;;;;;;;5045784;28;19925;-59
2022/11/28 10:50:36;;;;;;;;;;;;;;;;;;5048034;28;20445;-59
2022/11/28 10:53:02;;;;;;;;;;;;;;;;;;5050191;28;19917;-59
2022/11/28 10:55:28;;;;;;;;;;;;;;;;;;5043766;28;19942;-58
2022/11/28 10:57:53;;;;;;;;;;;;;;;;;;5039500;28;19912;-59
2022/11/28 11:00:19;;;;;;;;;;;;;;;;;;5043082;28;19956;-58
2022/11/28 11:02:45;;;;;;;;;;;;;;;;;;5046388;28;19917;-60
2022/11/28 11:05:12;;;;;;;;;;;;;;;;;;5045934;28;20043;-59
2022/11/28 11:07:37;;;;;;;;;;;;;;;;;;5044242;28;19999;-60
2022/11/28 11:10:03;;;;;;;;;;;;;;;;;;5044686;28;20012;-60
2022/11/28 11:12:29;;;;;;;;;;;;;;;;;;5045659;28;20032;-59
2022/11/28 11:14:55;;;;;;;;;;;;;;;;;;5043844;28;20428;-59
2022/11/28 11:17:21;;;;;;;;;;;;;;;;;;5044446;28;19943;-60
2022/11/28 11:19:47;;;;;;;;;;;;;;;;;;5042340;28;19920;-59
2022/11/28 11:22:13;;;;;;;;;;;;;;;;;;5034130;28;20326;-61
2022/11/28 11:24:38;;;;;;;;;;;;;;;;;;5044842;28;20023;-60
2022/11/28 11:27:04;;;;;;;;;;;;;;;;;;5044122;28;19913;-59
2022/11/28 11:29:30;;;;;;;;;;;;;;;;;;5047483;28;19916;-61
2022/11/28 11:32:02;;;;;;;;;;;;;;;;;;5045385;28;19916;-59
2022/11/28 11:34:28;;;;;;;;;;;;;;;;;;5043482;28;19913;-59
2022/11/28 11:36:54;;;;;;;;;;;;;;;;;;5038743;28;19936;-59
2022/11/28 11:39:19;;;;;;;;;;;;;;;;;;5045469;28;20188;-61
2022/11/28 11:41:45;;;;;;;;;;;;;;;;;;5044598;28;19959;-60
2022/11/28 11:44:11;;;;;;;;;;;;;;;;;;5042849;28;20023;-61
2022/11/28 11:46:37;;;;;;;;;;;;;;;;;;5046175;28;19909;-61
2022/11/28 11:49:03;;;;;;;;;;;;;;;;;;5041187;28;19916;-62
2022/11/28 11:51:29;;;;;;;;;;;;;;;;;;5040635;28;19999;-61
2022/11/28 11:53:55;;;;;;;;;;;;;;;;;;5045556;28;20061;-60
2022/11/28 11:56:20;;;;;;;;;;;;;;;;;;5044694;28;20331;-61
2022/11/28 11:58:46;;;;;;;;;;;;;;;;;;5045100;28;19939;-60
2022/11/28 12:01:12;;;;;;;;;;;;;;;;;;5049229;28;19920;-61
2022/11/28 12:03:38;;;;;;;;;;;;;;;;;;5044622;28;19912;-60
2022/11/28 12:06:04;;;;;;;;;;;;;;;;;;5044486;28;19909;-60
2022/11/28 12:08:30;;;;;;;;;;;;;;;;;;5048373;28;19978;-61
2022/11/28 12:10:56;;;;;;;;;;;;;;;;;;5046048;28;19913;-61
2022/11/28 12:13:22;;;;;;;;;;;;;;;;;;5048448;28;19958;-61
2022/11/28 12:15:48;;;;;;;;;;;;;;;;;;5046090;28;19917;-62
2022/11/28 12:18:13;;;;;;;;;;;;;;;;;;5047388;28;19916;-62
2022/11/28 12:20:39;;;;;;;;;;;;;;;;;;5045825;28;19928;-61
2022/11/28 12:23:05;;;;;;;;;;;;;;;;;;5048464;28;19962;-61
2022/11/28 12:25:31;;;;;;;;;;;;;;;;;;5048332;28;19917;-61
2022/11/28 12:27:57;;;;;;;;;;;;;;;;;;5045932;28;20001;-60
2022/11/28 12:30:23;;;;;;;;;;;;;;;;;;5046145;28;19913;-62
2022/11/28 12:32:49;;;;;;;;;;;;;;;;;;5046287;28;20294;-61
2022/11/28 12:35:14;;;;;;;;;;;;;;;;;;5045088;28;19921;-61
2022/11/28 12:37:40;;;;;;;;;;;;;;;;;;5042997;28;19923;-62
2022/11/28 12:40:06;;;;;;;;;;;;;;;;;;5049141;28;19924;-62
2022/11/28 12:42:32;;;;;;;;;;;;;;;;;;5044987;28;19920;-60
2022/11/28 12:44:58;;;;;;;;;;;;;;;;;;5034543;28;19921;-61
2022/11/28 12:47:24;;;;;;;;;;;;;;;;;;5038964;28;19932;-59
2022/11/28 12:49:51;;;;;;;;;;;;;;;;;;5040247;28;20566;-61
2022/11/28 12:52:17;;;;;;;;;;;;;;;;;;5046597;28;20022;-61
2022/11/28 12:54:43;;;;;;;;;;;;;;;;;;5044281;28;20036;-61
2022/11/28 12:57:08;;;;;;;;;;;;;;;;;;5047401;28;19917;-60
2022/11/28 12:59:34;;;;;;;;;;;;;;;;;;5044588;28;20691;-60
2022/11/28 13:02:00;;;;;;;;;;;;;;;;;;5043446;28;19922;-61
2022/11/28 13:04:26;;;;;;;;;;;;;;;;;;5044405;28;19913;-61
2022/11/28 13:06:52;;;;;;;;;;;;;;;;;;5044811;28;20000;-61
2022/11/28 13:09:18;;;;;;;;;;;;;;;;;;5045595;28;19924;-61
2022/11/28 13:11:44;;;;;;;;;;;;;;;;;;5049320;28;19966;-60
2022/11/28 13:14:09;;;;;;;;;;;;;;;;;;5046866;28;20535;-61
2022/11/28 13:16:35;;;;;;;;;;;;;;;;;;5046345;28;19925;-63
2022/11/28 13:19:01;;;;;;;;;;;;;;;;;;5043919;28;19917;-62
2022/11/28 13:21:27;;;;;;;;;;;;;;;;;;5040819;28;19982;-61
2022/11/28 13:23:53;;;;;;;;;;;;;;;;;;5036634;28;19967;-61
2022/11/28 13:26:20;;;;;;;;;;;;;;;;;;5045894;28;20011;-61
2022/11/28 13:28:46;;;;;;;;;;;;;;;;;;5053374;28;19916;-62
2022/11/28 13:31:12;;;;;;;;;;;;;;;;;;5050236;28;20527;-62
2022/11/28 13:33:38;;;;;;;;;;;;;;;;;;5048665;28;19917;-62
2022/11/28 13:36:04;;;;;;;;;;;;;;;;;;5044766;28;20011;-63
2022/11/28 13:38:30;;;;;;;;;;;;;;;;;;5049226;28;20655;-62
2022/11/28 13:40:56;;;;;;;;;;;;;;;;;;5045603;28;19968;-61
2022/11/28 13:43:22;;;;;;;;;;;;;;;;;;5046106;28;20000;-62
2022/11/28 13:45:48;;;;;;;;;;;;;;;;;;5042922;28;20032;-61
2022/11/28 13:48:14;;;;;;;;;;;;;;;;;;5045196;28;20405;-62
2022/11/28 13:50:40;;;;;;;;;;;;;;;;;;5043215;28;19982;-62
2022/11/28 13:53:06;;;;;;;;;;;;;;;;;;5048361;28;20477;-63
2022/11/28 13:55:31;;;;;;;;;;;;;;;;;;5044489;28;19999;-63
2022/11/28 13:57:57;;;;;;;;;;;;;;;;;;5045083;28;19999;-61
2022/11/28 14:00:23;;;;;;;;;;;;;;;;;;5045097;28;19924;-62
2022/11/28 14:02:49;;;;;;;;;;;;;;;;;;5042114;28;19921;-63
2022/11/28 14:05:15;;;;;;;;;;;;;;;;;;5048810;28;19947;-63
2022/11/28 14:07:41;;;;;;;;;;;;;;;;;;5044663;28;20730;-61
2022/11/28 14:10:07;;;;;;;;;;;;;;;;;;5047430;28;19919;-61
2022/11/28 14:12:33;;;;;;;;;;;;;;;;;;5042657;28;19992;-63
2022/11/28 14:14:59;;;;;;;;;;;;;;;;;;5043526;28;19916;-63
2022/11/28 14:17:24;;;;;;;;;;;;;;;;;;5046316;28;19958;-62
2022/11/28 14:19:50;;;;;;;;;;;;;;;;;;5043248;28;19963;-62
2022/11/28 14:22:16;;;;;;;;;;;;;;;;;;5045268;28;19943;-60
2022/11/28 14:24:42;;;;;;;;;;;;;;;;;;5047034;28;19912;-63
2022/11/28 14:27:08;;;;;;;;;;;;;;;;;;5044693;28;19913;-62
2022/11/28 14:29:34;;;;;;;;;;;;;;;;;;5044446;28;19923;-61
2022/11/28 14:32:00;;;;;;;;;;;;;;;;;;5047414;28;19920;-62
2022/11/28 14:34:25;;;;;;;;;;;;;;;;;;5046742;28;20402;-61
2022/11/28 14:36:51;;;;;;;;;;;;;;;;;;5041804;28;19921;-61
2022/11/28 14:39:18;;;;;;;;;;;;;;;;;;5044844;28;19923;-62
2022/11/28 14:41:44;;;;;;;;;;;;;;;;;;5044466;28;19928;-61
2022/11/28 14:44:10;;;;;;;;;;;;;;;;;;5048223;28;19919;-61
2022/11/28 14:46:36;;;;;;;;;;;;;;;;;;5041422;28;19947;-60
2022/11/28 14:49:02;;;;;;;;;;;;;;;;;;5045019;28;19917;-61
2022/11/28 14:51:28;;;;;;;;;;;;;;;;;;5034395;28;19917;-63
2022/11/28 14:53:54;;;;;;;;;;;;;;;;;;5037247;28;20528;-61
2022/11/28 14:56:21;;;;;;;;;;;;;;;;;;5044999;28;19960;-61
2022/11/28 14:58:47;;;;;;;;;;;;;;;;;;5042821;28;19917;-62
2022/11/28 15:01:13;;;;;;;;;;;;;;;;;;5037940;28;20361;-62
2022/11/28 15:03:39;;;;;;;;;;;;;;;;;;5040988;28;20298;-61
2022/11/28 15:06:04;;;;;;;;;;;;;;;;;;5042480;28;19916;-61
2022/11/28 15:08:30;;;;;;;;;;;;;;;;;;5049147;28;19913;-61
2022/11/28 15:10:56;;;;;;;;;;;;;;;;;;5043622;28;19919;-61
2022/11/28 15:13:22;;;;;;;;;;;;;;;;;;5044429;28;19916;-61
2022/11/28 15:15:48;;;;;;;;;;;;;;;;;;5042111;28;20249;-60
2022/11/28 15:18:14;;;;;;;;;;;;;;;;;;5045550;28;19917;-61
2022/11/28 15:20:41;;;;;;;;;;;;;;;;;;5045201;28;19925;-61
2022/11/28 15:23:07;;;;;;;;;;;;;;;;;;5042267;28;19921;-59
2022/11/28 15:25:36;;;;;;;;;;;;;;;;;;5043942;28;20437;-61
2022/11/28 15:28:01;;;;;;;;;;;;;;;;;;5048942;28;20036;-61
2022/11/28 15:30:27;;;;;;;;;;;;;;;;;;5044348;28;20019;-61
2022/11/28 15:32:53;;;;;;;;;;;;;;;;;;5043636;28;19923;-60
2022/11/28 15:35:19;;;;;;;;;;;;;;;;;;5052837;28;19925;-60
2022/11/28 15:37:45;;;;;;;;;;;;;;;;;;5047329;28;19913;-60
2022/11/28 15:40:11;;;;;;;;;;;;;;;;;;5039935;28;19920;-61
2022/11/28 15:42:37;;;;;;;;;;;;;;;;;;5038231;28;20024;-61
2022/11/28 15:45:03;;;;;;;;;;;;;;;;;;5038811;28;19920;-60
2022/11/28 15:47:29;;;;;;;;;;;;;;;;;;5046490;28;20019;-60
2022/11/28 15:49:55;;;;;;;;;;;;;;;;;;5046265;28;19999;-61
2022/11/28 15:52:21;;;;;;;;;;;;;;;;;;5048556;28;19917;-62
2022/11/28 15:54:50;;;;;;;;;;;;;;;;;;5046021;28;20549;-61
2022/11/28 15:57:16;;;;;;;;;;;;;;;;;;5044419;28;19962;-63
2022/11/28 15:59:41;;;;;;;;;;;;;;;;;;5040936;28;20780;-62
2022/11/28 16:02:07;;;;;;;;;;;;;;;;;;5040493;28;19927;-60
2022/11/28 16:04:35;;;;;;;;;;;;;;;;;;5036258;28;20210;-62
2022/11/28 16:07:01;;;;;;;;;;;;;;;;;;5039818;28;19923;-60
2022/11/28 16:09:27;;;;;;;;;;;;;;;;;;5034243;28;20289;-61
2022/11/28 16:11:53;;;;;;;;;;;;;;;;;;5040161;28;19920;-62
2022/11/28 16:14:19;;;;;;;;;;;;;;;;;;5038599;28;19920;-62
2022/11/28 16:16:44;;;;;;;;;;;;;;;;;;5042252;28;19912;-61
2022/11/28 16:19:10;;;;;;;;;;;;;;;;;;5056848;28;19912;-61
2022/11/28 16:21:36;;;;;;;;;;;;;;;;;;5045056;28;19939;-63
2022/11/28 16:24:03;;;;;;;;;;;;;;;;;;5043903;28;19917;-61
2022/11/28 16:26:28;;;;;;;;;;;;;;;;;;5043795;28;19932;-63
2022/11/28 16:28:54;;;;;;;;;;;;;;;;;;5052957;28;19917;-61
2022/11/28 16:31:22;;;;;;;;;;;;;;;;;;5039367;28;19960;-61
2022/11/28 16:33:49;;;;;;;;;;;;;;;;;;5038637;28;19921;-61
2022/11/28 16:36:15;;;;;;;;;;;;;;;;;;5050687;28;19920;-61